createdAt,value
2019-04-04T00:00:39.508Z,99510.36
2019-04-04T00:03:08.437Z,99506.67
2019-04-04T00:05:37.346Z,99497.87
2019-04-04T00:08:06.306Z,99493.23
2019-04-04T00:10:35.280Z,99490.86
2019-04-04T00:13:04.120Z,99485.33
2019-04-04T00:15:32.992Z,99488.91
2019-04-04T00:18:01.915Z,99492.15
2019-04-04T00:20:31.851Z,99523.89
2019-04-04T00:22:59.703Z,99516.00
2019-04-04T00:25:28.622Z,99513.47
2019-04-04T00:27:57.503Z,99507.87
2019-04-04T00:30:26.405Z,99512.91
2019-04-04T00:32:55.302Z,99508.28
2019-04-04T00:35:24.210Z,99496.20
2019-04-04T00:37:53.091Z,99496.31
2019-04-04T00:40:22.014Z,99499.95
2019-04-04T00:42:50.899Z,99493.13
2019-04-04T00:45:19.815Z,99485.09
2019-04-04T00:47:48.720Z,99499.34
2019-04-04T00:50:17.616Z,99503.98
2019-04-04T00:52:46.475Z,99510.99
2019-04-04T00:55:15.896Z,99504.37
2019-04-04T00:57:44.311Z,99492.44
2019-04-04T01:00:13.214Z,99481.49
2019-04-04T01:02:42.118Z,99463.25
2019-04-04T01:05:11.028Z,99464.53
2019-04-04T01:07:39.968Z,99474.87
2019-04-04T01:10:08.930Z,99470.20
2019-04-04T01:12:37.808Z,99462.61
2019-04-04T01:15:06.772Z,99456.17
2019-04-04T01:17:35.782Z,99469.20
2019-04-04T01:20:07.048Z,99490.28
2019-04-04T01:22:35.957Z,99499.25
2019-04-04T01:25:05.389Z,99501.56
2019-04-04T01:27:35.036Z,99508.09
2019-04-04T01:30:03.184Z,99506.42
2019-04-04T01:32:32.088Z,99511.38
2019-04-04T01:35:00.994Z,99515.06
2019-04-04T01:37:29.900Z,99506.43
2019-04-04T01:39:59.944Z,99504.91
2019-04-04T01:42:27.688Z,99500.83
2019-04-04T01:44:56.698Z,99493.14
2019-04-04T01:47:25.497Z,99487.08
2019-04-04T01:49:54.420Z,99469.88
2019-04-04T01:52:23.296Z,99453.59
2019-04-04T01:54:52.205Z,99461.10
2019-04-04T01:57:21.092Z,99473.24
2019-04-04T01:59:49.991Z,99471.44
2019-04-04T02:02:18.877Z,99474.69
2019-04-04T02:04:47.781Z,99475.19
2019-04-04T02:07:16.678Z,99476.87
2019-04-04T02:09:45.598Z,99469.85
2019-04-04T02:12:14.518Z,99462.23
2019-04-04T02:14:43.673Z,99464.50
2019-04-04T02:17:12.309Z,99479.52
2019-04-04T02:19:41.192Z,99481.01
2019-04-04T02:22:10.103Z,99470.04
2019-04-04T02:24:39.004Z,99461.78
2019-04-04T02:27:07.904Z,99460.70
2019-04-04T02:29:36.800Z,99469.45
2019-04-04T02:32:08.887Z,99453.38
2019-04-04T02:34:38.473Z,99444.70
2019-04-04T02:37:06.694Z,99447.16
2019-04-04T02:39:36.061Z,99443.44
2019-04-04T02:42:04.489Z,99454.19
2019-04-04T02:44:33.405Z,99451.16
2019-04-04T02:47:02.301Z,99445.31
2019-04-04T02:49:31.181Z,99431.71
2019-04-04T02:52:00.099Z,99435.06
2019-04-04T02:54:28.968Z,99434.21
2019-04-04T02:56:57.859Z,99427.59
2019-04-04T02:59:26.777Z,99427.94
2019-04-04T03:01:55.660Z,99417.61
2019-04-04T03:04:24.543Z,99416.14
2019-04-04T03:06:57.335Z,99425.48
2019-04-04T03:09:22.339Z,99432.48
2019-04-04T03:11:53.547Z,99425.68
2019-04-04T03:14:20.122Z,99421.30
2019-04-04T03:16:49.021Z,99423.63
2019-04-04T03:19:17.928Z,99425.41
2019-04-04T03:21:46.819Z,99426.48
2019-04-04T03:24:15.708Z,99427.11
2019-04-04T03:26:44.592Z,99421.61
2019-04-04T03:29:13.479Z,99414.23
2019-04-04T03:31:42.416Z,99417.13
2019-04-04T03:34:12.781Z,99414.03
2019-04-04T03:36:40.177Z,99423.92
2019-04-04T03:39:09.128Z,99428.01
2019-04-04T03:41:38.048Z,99428.09
2019-04-04T03:44:06.974Z,99418.34
2019-04-04T03:46:38.762Z,99411.12
2019-04-04T03:49:04.747Z,99412.25
2019-04-04T03:51:37.091Z,99414.59
2019-04-04T03:54:03.747Z,99410.64
2019-04-04T03:56:38.723Z,99406.75
2019-04-04T03:59:01.561Z,99395.66
2019-04-04T04:01:30.457Z,99413.10
2019-04-04T04:03:59.389Z,99426.88
2019-04-04T04:06:28.300Z,99428.55
2019-04-04T04:08:57.194Z,99429.28
2019-04-04T04:11:26.103Z,99437.86
2019-04-04T04:13:55.041Z,99435.81
2019-04-04T04:16:24.007Z,99433.96
2019-04-04T04:18:54.451Z,99441.80
2019-04-04T04:21:21.849Z,99436.29
2019-04-04T04:23:50.754Z,99427.74
2019-04-04T04:26:19.660Z,99432.76
2019-04-04T04:28:52.135Z,99443.38
2019-04-04T04:31:17.465Z,99444.36
2019-04-04T04:33:46.393Z,99447.40
2019-04-04T04:36:16.349Z,99445.20
2019-04-04T04:38:44.183Z,99438.92
2019-04-04T04:41:13.078Z,99445.31
2019-04-04T04:43:41.959Z,99455.59
2019-04-04T04:46:10.869Z,99448.30
2019-04-04T04:48:39.754Z,99445.20
2019-04-04T04:51:11.551Z,99450.09
2019-04-04T04:53:37.546Z,99440.81
2019-04-04T04:56:06.540Z,99441.80
2019-04-04T04:58:35.431Z,99452.69
2019-04-04T05:01:04.311Z,99444.98
2019-04-04T05:03:33.248Z,99434.46
2019-04-04T05:06:02.642Z,99436.92
2019-04-04T05:08:31.049Z,99431.55
2019-04-04T05:10:59.981Z,99433.17
2019-04-04T05:13:28.976Z,99435.53
2019-04-04T05:15:57.788Z,99436.56
2019-04-04T05:18:26.683Z,99429.50
2019-04-04T05:20:57.351Z,99433.34
2019-04-04T05:23:24.454Z,99431.01
2019-04-04T05:25:54.321Z,99436.79
2019-04-04T05:28:22.268Z,99444.71
2019-04-04T05:30:51.284Z,99440.97
2019-04-04T05:33:22.726Z,99434.05
2019-04-04T05:35:48.999Z,99438.48
2019-04-04T05:38:17.903Z,99443.14
2019-04-04T05:40:46.807Z,99435.16
2019-04-04T05:43:15.774Z,99440.34
2019-04-04T05:45:45.234Z,99441.39
2019-04-04T05:48:13.524Z,99442.30
2019-04-04T05:50:43.650Z,99447.48
2019-04-04T05:53:11.336Z,99448.74
2019-04-04T05:55:41.848Z,99446.33
2019-04-04T05:58:09.265Z,99454.97
2019-04-04T06:00:38.151Z,99456.58
2019-04-04T06:03:07.086Z,99451.43
2019-04-04T06:05:35.983Z,99455.95
2019-04-04T06:08:07.843Z,99462.97
2019-04-04T06:10:33.836Z,99468.31
2019-04-04T06:13:02.808Z,99475.11
2019-04-04T06:15:32.235Z,99477.66
2019-04-04T06:18:00.601Z,99478.47
2019-04-04T06:20:29.534Z,99474.87
2019-04-04T06:22:58.387Z,99471.25
2019-04-04T06:25:27.300Z,99471.11
2019-04-04T06:27:56.208Z,99473.80
2019-04-04T06:30:25.117Z,99475.55
2019-04-04T06:32:54.046Z,99479.80
2019-04-04T06:35:22.929Z,99483.83
2019-04-04T06:37:52.102Z,99478.10
2019-04-04T06:40:20.784Z,99483.91
2019-04-04T06:42:49.722Z,99488.88
2019-04-04T06:45:18.617Z,99493.70
2019-04-04T06:47:47.564Z,99492.91
2019-04-04T06:50:16.469Z,99498.56
2019-04-04T06:52:45.360Z,99503.53
2019-04-04T06:55:14.269Z,99515.13
2019-04-04T06:57:43.172Z,99512.20
2019-04-04T07:00:15.535Z,99507.26
2019-04-04T07:02:41.100Z,99505.39
2019-04-04T07:05:10.691Z,99504.02
2019-04-04T07:07:39.088Z,99504.86
2019-04-04T07:10:08.130Z,99503.27
2019-04-04T07:12:38.039Z,99504.75
2019-04-04T07:15:06.520Z,99504.23
2019-04-04T07:17:35.376Z,99505.73
2019-04-04T07:20:05.005Z,99504.16
2019-04-04T07:22:33.931Z,99510.63
2019-04-04T07:25:05.572Z,99505.19
2019-04-04T07:27:31.834Z,99498.53
2019-04-04T07:30:00.655Z,99501.14
2019-04-04T07:32:29.586Z,99507.81
2019-04-04T07:34:58.499Z,99509.59
2019-04-04T07:37:27.443Z,99500.36
2019-04-04T07:39:56.422Z,99499.38
2019-04-04T07:42:25.327Z,99502.35
2019-04-04T07:44:54.644Z,99489.35
2019-04-04T07:47:23.160Z,99495.91
2019-04-04T07:49:53.227Z,99493.64
2019-04-04T07:52:20.958Z,99495.69
2019-04-04T07:54:49.848Z,99505.80
2019-04-04T07:57:19.774Z,99515.13
2019-04-04T07:59:47.648Z,99519.23
2019-04-04T08:02:16.598Z,99516.53
2019-04-04T08:04:45.530Z,99516.19
2019-04-04T08:07:14.397Z,99516.62
2019-04-04T08:09:43.315Z,99522.17
2019-04-04T08:12:12.287Z,99530.17
2019-04-04T08:14:41.193Z,99527.94
2019-04-04T08:17:10.098Z,99532.97
2019-04-04T08:19:38.988Z,99524.02
2019-04-04T08:22:08.349Z,99528.98
2019-04-04T08:24:37.051Z,99529.26
2019-04-04T08:27:06.077Z,99535.95
2019-04-04T08:29:34.922Z,99540.61
2019-04-04T08:32:03.901Z,99544.77
2019-04-04T08:34:32.805Z,99548.83
2019-04-04T08:37:01.704Z,99547.78
2019-04-04T08:39:30.624Z,99553.02
2019-04-04T08:41:59.536Z,99554.62
2019-04-04T08:44:28.473Z,99556.38
2019-04-04T08:46:57.351Z,99555.56
2019-04-04T08:49:26.236Z,99550.48
2019-04-04T08:51:55.159Z,99549.71
2019-04-04T08:54:24.052Z,99556.50
2019-04-04T08:56:53.069Z,99560.05
2019-04-04T08:59:21.861Z,99557.23
2019-04-04T09:01:50.795Z,99561.66
2019-04-04T09:04:19.702Z,99567.44
2019-04-04T09:06:48.579Z,99580.66
2019-04-04T09:09:17.494Z,99579.34
2019-04-04T09:11:46.401Z,99567.03
2019-04-04T09:14:15.328Z,99562.34
2019-04-04T09:16:44.244Z,99568.16
2019-04-04T09:19:13.163Z,99569.19
2019-04-04T09:21:42.083Z,99570.20
2019-04-04T09:24:11.071Z,99571.50
2019-04-04T09:26:39.951Z,99564.13
2019-04-04T09:29:09.047Z,99578.92
2019-04-04T09:31:38.046Z,99579.31
2019-04-04T09:34:07.028Z,99573.95
2019-04-04T09:36:35.932Z,99578.22
2019-04-04T09:39:06.909Z,99581.89
2019-04-04T09:41:35.890Z,99583.19
2019-04-04T09:44:06.150Z,99581.61
2019-04-04T09:46:33.754Z,99580.33
2019-04-04T09:49:02.684Z,99591.02
2019-04-04T09:51:31.601Z,99582.88
2019-04-04T09:54:00.515Z,99570.16
2019-04-04T09:56:29.420Z,99572.58
2019-04-04T09:58:58.311Z,99569.03
2019-04-04T10:01:27.250Z,99571.52
2019-04-04T10:03:56.187Z,99572.36
2019-04-04T10:06:25.079Z,99569.44
2019-04-04T10:08:53.954Z,99568.50
2019-04-04T10:11:22.853Z,99571.95
2019-04-04T10:13:51.762Z,99570.43
2019-04-04T10:16:20.675Z,99578.38
2019-04-04T10:18:49.642Z,99574.97
2019-04-04T10:21:18.482Z,99574.17
2019-04-04T10:23:47.390Z,99567.16
2019-04-04T10:26:16.291Z,99572.97
2019-04-04T10:28:45.222Z,99579.66
2019-04-04T10:31:14.093Z,99583.50
2019-04-04T10:33:43.017Z,99587.86
2019-04-04T10:36:11.868Z,99596.17
2019-04-04T10:38:40.769Z,99591.27
2019-04-04T10:41:09.775Z,99584.25
2019-04-04T10:43:38.706Z,99579.89
2019-04-04T10:46:07.810Z,99577.39
2019-04-04T10:48:36.777Z,99570.95
2019-04-04T10:51:05.736Z,99572.30
2019-04-04T10:53:34.630Z,99576.63
2019-04-04T10:56:03.537Z,99583.89
2019-04-04T10:58:32.419Z,99589.25
2019-04-04T11:01:01.303Z,99593.27
2019-04-04T11:03:30.244Z,99586.36
2019-04-04T11:05:59.110Z,99578.74
2019-04-04T11:08:28.007Z,99575.75
2019-04-04T11:10:58.937Z,99565.42
2019-04-04T11:13:33.302Z,99558.71
2019-04-04T11:15:54.795Z,99558.18
2019-04-04T11:18:23.668Z,99553.92
2019-04-04T11:20:53.084Z,99551.14
2019-04-04T11:23:22.006Z,99561.01
2019-04-04T11:25:55.504Z,99553.43
2019-04-04T11:28:27.015Z,99553.05
2019-04-04T11:30:54.163Z,99548.47
2019-04-04T11:33:23.391Z,99541.72
2019-04-04T11:35:55.233Z,99535.80
2019-04-04T11:38:26.679Z,99534.53
2019-04-04T11:40:53.604Z,99528.80
2019-04-04T11:43:24.974Z,99531.67
2019-04-04T11:45:59.433Z,99530.31
2019-04-04T11:48:26.597Z,99546.45
2019-04-04T11:50:56.070Z,99546.30
2019-04-04T11:53:25.158Z,99565.14
2019-04-04T11:55:54.626Z,99561.88
2019-04-04T11:58:23.780Z,99576.97
2019-04-04T12:00:57.319Z,99589.73
2019-04-04T12:03:26.654Z,99597.53
2019-04-04T12:05:55.988Z,99595.00
2019-04-04T12:08:29.739Z,99603.25
2019-04-04T12:11:01.238Z,99599.78
2019-04-04T12:13:30.589Z,99603.88
2019-04-04T12:15:59.778Z,99603.11
2019-04-04T12:18:31.435Z,99596.06
2019-04-04T12:21:01.012Z,99609.77
2019-04-04T12:23:32.822Z,99603.24
2019-04-04T12:26:01.906Z,99611.77
2019-04-04T12:28:36.633Z,99607.92
2019-04-04T12:31:06.173Z,99607.11
2019-04-04T12:33:37.358Z,99608.36
2019-04-04T12:36:07.739Z,99613.98
2019-04-04T12:38:38.571Z,99611.28
2019-04-04T12:41:07.675Z,99609.78
2019-04-04T12:43:37.034Z,99622.14
2019-04-04T12:46:09.146Z,99621.58
2019-04-04T12:48:38.188Z,99621.72
2019-04-04T12:51:08.341Z,99629.56
2019-04-04T12:53:37.475Z,99637.88
2019-04-04T12:56:06.641Z,99640.89
2019-04-04T12:58:38.262Z,99637.70
2019-04-04T13:01:07.486Z,99651.94
2019-04-04T13:03:39.365Z,99651.45
2019-04-04T13:06:08.789Z,99652.78
2019-04-04T13:08:38.762Z,99651.42
2019-04-04T13:11:08.211Z,99648.20
2019-04-04T13:13:38.315Z,99646.87
2019-04-04T13:16:07.082Z,99641.80
2019-04-04T13:18:36.582Z,99644.13
2019-04-04T13:21:05.940Z,99647.38
2019-04-04T13:23:40.149Z,99647.20
2019-04-04T13:26:11.438Z,99643.48
2019-04-04T13:28:41.963Z,99652.09
2019-04-04T13:31:18.692Z,99646.52
2019-04-04T13:33:50.644Z,99637.19
2019-04-04T13:36:24.865Z,99626.86
2019-04-04T13:38:55.118Z,99616.19
2019-04-04T13:41:22.552Z,99605.31
2019-04-04T13:43:54.320Z,99613.41
2019-04-04T13:46:25.917Z,99624.43
2019-04-04T13:48:54.755Z,99639.01
2019-04-04T13:51:26.921Z,99641.41
2019-04-04T13:53:59.069Z,99643.24
2019-04-04T13:56:29.344Z,99658.33
2019-04-04T13:59:01.155Z,99655.45
2019-04-04T14:01:29.686Z,99661.42
2019-04-04T14:04:00.508Z,99673.13
2019-04-04T14:06:28.008Z,99675.16
2019-04-04T14:08:59.753Z,99677.02
2019-04-04T14:11:28.912Z,99678.71
2019-04-04T14:13:58.872Z,99687.52
2019-04-04T14:16:34.211Z,99683.09
2019-04-04T14:19:03.584Z,99678.98
2019-04-04T14:21:32.668Z,99683.42
2019-04-04T14:24:12.347Z,99680.66
2019-04-04T14:26:34.216Z,99683.57
2019-04-04T14:29:06.890Z,99685.23
2019-04-04T14:31:39.513Z,99687.80
2019-04-04T14:34:11.411Z,99692.52
2019-04-04T14:36:38.349Z,99688.47
2019-04-04T14:39:07.812Z,99672.20
2019-04-04T14:41:39.786Z,99673.70
2019-04-04T14:44:09.140Z,99708.65
2019-04-04T14:46:40.748Z,99723.73
2019-04-04T14:49:09.735Z,99718.84
2019-04-04T14:51:38.630Z,99702.72
2019-04-04T14:54:07.895Z,99708.15
2019-04-04T14:56:36.757Z,99721.03
2019-04-04T14:59:05.968Z,99727.48
2019-04-04T15:01:35.247Z,99727.98
2019-04-04T15:04:03.788Z,99732.58
2019-04-04T15:06:32.713Z,99728.53
2019-04-04T15:09:01.609Z,99721.56
2019-04-04T15:11:30.535Z,99729.38
2019-04-04T15:13:59.422Z,99746.62
2019-04-04T15:16:28.337Z,99742.41
2019-04-04T15:18:57.246Z,99741.04
2019-04-04T15:21:26.175Z,99734.95
2019-04-04T15:23:55.111Z,99743.54
2019-04-04T15:26:24.078Z,99759.28
2019-04-04T15:28:52.990Z,99755.27
2019-04-04T15:31:21.918Z,99754.05
2019-04-04T15:33:50.922Z,99765.36
2019-04-04T15:36:19.727Z,99773.32
2019-04-04T15:38:48.634Z,99787.53
2019-04-04T15:41:17.575Z,99781.08
2019-04-04T15:43:46.461Z,99770.78
2019-04-04T15:46:15.369Z,99761.98
2019-04-04T15:48:44.272Z,99769.77
2019-04-04T15:51:13.154Z,99771.78
2019-04-04T15:53:42.082Z,99762.30
2019-04-04T15:56:10.962Z,99751.48
2019-04-04T15:58:39.885Z,99758.39
2019-04-04T16:01:08.835Z,99740.30
2019-04-04T16:03:37.763Z,99749.50
2019-04-04T16:06:06.762Z,99743.73
2019-04-04T16:08:35.621Z,99737.81
2019-04-04T16:11:04.594Z,99748.50
2019-04-04T16:13:33.536Z,99759.52
2019-04-04T16:16:02.406Z,99768.32
2019-04-04T16:18:31.306Z,99766.26
2019-04-04T16:21:00.279Z,99768.98
2019-04-04T16:23:29.187Z,99767.45
2019-04-04T16:25:58.087Z,99769.14
2019-04-04T16:28:26.959Z,99770.50
2019-04-04T16:30:55.887Z,99777.25
2019-04-04T16:33:26.474Z,99795.17
2019-04-04T16:35:53.695Z,99794.67
2019-04-04T16:38:23.002Z,99798.06
2019-04-04T16:40:51.463Z,99803.78
2019-04-04T16:43:20.393Z,99812.78
2019-04-04T16:45:49.276Z,99812.70
2019-04-04T16:48:18.210Z,99807.31
2019-04-04T16:50:47.080Z,99816.26
2019-04-04T16:53:16.006Z,99824.54
2019-04-04T16:55:44.917Z,99827.78
2019-04-04T16:58:13.823Z,99824.70
2019-04-04T17:00:42.748Z,99821.75
2019-04-04T17:03:11.638Z,99816.23
2019-04-04T17:05:40.535Z,99828.26
2019-04-04T17:08:09.494Z,99839.05
2019-04-04T17:10:38.399Z,99832.59
2019-04-04T17:13:07.594Z,99833.45
2019-04-04T17:15:36.504Z,99833.45
2019-04-04T17:18:05.510Z,99837.02
2019-04-04T17:20:34.369Z,99835.00
2019-04-04T17:23:03.337Z,99827.86
2019-04-04T17:25:32.234Z,99834.97
2019-04-04T17:28:01.187Z,99839.84
2019-04-04T17:30:30.143Z,99847.59
2019-04-04T17:32:59.003Z,99852.31
2019-04-04T17:35:28.179Z,99854.67
2019-04-04T17:37:56.848Z,99856.52
2019-04-04T17:40:25.737Z,99867.45
2019-04-04T17:42:54.609Z,99879.66
2019-04-04T17:45:23.512Z,99894.50
2019-04-04T17:47:52.419Z,99891.58
2019-04-04T17:50:21.843Z,99895.23
2019-04-04T17:52:50.620Z,99887.77
2019-04-04T17:55:19.729Z,99896.11
2019-04-04T17:57:48.752Z,99894.41
2019-04-04T18:00:17.215Z,99887.94
2019-04-04T18:02:46.088Z,99875.62
2019-04-04T18:05:14.960Z,99879.06
2019-04-04T18:07:43.860Z,99892.19
2019-04-04T18:10:12.778Z,99904.45
2019-04-04T18:12:41.694Z,99914.21
2019-04-04T18:15:10.611Z,99922.38
2019-04-04T18:17:39.527Z,99924.30
2019-04-04T18:20:08.418Z,99922.25
2019-04-04T18:22:37.341Z,99913.35
2019-04-04T18:25:06.456Z,99927.87
2019-04-04T18:27:35.412Z,99922.64
2019-04-04T18:30:05.371Z,99922.38
2019-04-04T18:32:34.287Z,99927.05
2019-04-04T18:35:03.615Z,99931.02
2019-04-04T18:37:32.297Z,99927.55
2019-04-04T18:40:01.014Z,99930.71
2019-04-04T18:42:29.969Z,99935.97
2019-04-04T18:44:58.856Z,99938.73
2019-04-04T18:47:27.731Z,99939.75
2019-04-04T18:49:56.631Z,99935.36
2019-04-04T18:52:25.542Z,99931.95
2019-04-04T18:54:54.451Z,99930.89
2019-04-04T18:57:23.320Z,99930.95
2019-04-04T18:59:52.233Z,99934.16
2019-04-04T19:02:21.144Z,99939.30
2019-04-04T19:04:50.044Z,99941.38
2019-04-04T19:07:18.949Z,99951.23
2019-04-04T19:09:47.830Z,99948.05
2019-04-04T19:12:16.725Z,99949.32
2019-04-04T19:14:45.612Z,99945.02
2019-04-04T19:17:14.494Z,99951.56
2019-04-04T19:19:43.394Z,99950.35
2019-04-04T19:22:12.284Z,99954.50
2019-04-04T19:24:41.177Z,99947.40
2019-04-04T19:27:10.080Z,99955.56
2019-04-04T19:29:38.957Z,99955.06
2019-04-04T19:32:07.933Z,99962.98
2019-04-04T19:34:36.806Z,99957.27
2019-04-04T19:37:05.777Z,99946.61
2019-04-04T19:39:34.682Z,99945.08
2019-04-04T19:42:05.057Z,99957.14
2019-04-04T19:44:32.568Z,99952.38
2019-04-04T19:47:01.481Z,99953.11
2019-04-04T19:49:30.477Z,99964.89
2019-04-04T19:51:59.402Z,99969.03
2019-04-04T19:54:28.318Z,99977.83
2019-04-04T19:56:57.203Z,99981.02
2019-04-04T19:59:26.102Z,99984.99
2019-04-04T20:01:54.967Z,99974.48
2019-04-04T20:04:23.865Z,99969.22
2019-04-04T20:06:52.763Z,99973.58
2019-04-04T20:09:21.665Z,99974.12
2019-04-04T20:11:50.614Z,99990.39
2019-04-04T20:14:19.502Z,99983.64
2019-04-04T20:16:48.409Z,99976.82
2019-04-04T20:19:17.269Z,99975.28
2019-04-04T20:21:46.185Z,99973.35
2019-04-04T20:24:15.058Z,99978.80
2019-04-04T20:26:43.968Z,99974.76
2019-04-04T20:29:12.833Z,99984.86
2019-04-04T20:31:41.740Z,99991.28
2019-04-04T20:34:10.634Z,99995.40
2019-04-04T20:36:39.518Z,99992.83
2019-04-04T20:39:08.458Z,99986.94
2019-04-04T20:41:37.360Z,99996.28
2019-04-04T20:44:06.310Z,100000.91
2019-04-04T20:46:35.190Z,100009.13
2019-04-04T20:49:04.119Z,100007.26
2019-04-04T20:51:33.006Z,100006.97
2019-04-04T20:54:01.930Z,100003.27
2019-04-04T20:56:30.832Z,100004.22
2019-04-04T20:58:59.747Z,100005.59
2019-04-04T21:01:28.633Z,100011.64
2019-04-04T21:03:57.638Z,100024.55
2019-04-04T21:06:26.449Z,100028.52
2019-04-04T21:08:55.361Z,100029.84
2019-04-04T21:11:24.252Z,100041.36
2019-04-04T21:13:56.436Z,100037.78
2019-04-04T21:16:22.036Z,100041.71
2019-04-04T21:18:50.953Z,100044.10
2019-04-04T21:21:19.850Z,100036.96
2019-04-04T21:23:48.775Z,100045.48
2019-04-04T21:26:17.663Z,100043.09
2019-04-04T21:28:46.565Z,100054.17
2019-04-04T21:31:15.474Z,100054.02
2019-04-04T21:33:44.382Z,100049.86
2019-04-04T21:36:13.254Z,100062.11
2019-04-04T21:38:42.159Z,100064.18
2019-04-04T21:41:11.063Z,100063.22
2019-04-04T21:43:39.963Z,100060.03
2019-04-04T21:46:08.964Z,100052.02
2019-04-04T21:48:37.793Z,100061.31
2019-04-04T21:51:06.797Z,100063.45
2019-04-04T21:53:35.650Z,100051.96
2019-04-04T21:56:04.537Z,100059.97
2019-04-04T21:58:33.443Z,100057.17
2019-04-04T22:01:02.343Z,100057.53
2019-04-04T22:03:31.242Z,100054.65
2019-04-04T22:06:00.221Z,100055.88
2019-04-04T22:08:29.127Z,100053.06
2019-04-04T22:10:58.114Z,100056.41
2019-04-04T22:13:26.947Z,100055.67
2019-04-04T22:15:55.881Z,100059.95
2019-04-04T22:18:24.787Z,100066.23
2019-04-04T22:20:53.709Z,100076.98
2019-04-04T22:23:22.618Z,100076.70
2019-04-04T22:25:51.541Z,100083.18
2019-04-04T22:28:20.450Z,100084.64
2019-04-04T22:30:49.409Z,100084.52
2019-04-04T22:33:18.397Z,100084.39
2019-04-04T22:35:47.353Z,100085.98
2019-04-04T22:38:16.262Z,100079.06
2019-04-04T22:40:45.213Z,100082.39
2019-04-04T22:43:14.133Z,100080.23
2019-04-04T22:45:43.063Z,100078.78
2019-04-04T22:48:11.991Z,100087.70
2019-04-04T22:50:40.897Z,100088.30
2019-04-04T22:53:09.827Z,100083.03
2019-04-04T22:55:38.731Z,100081.32
2019-04-04T22:58:07.719Z,100076.29
2019-04-04T23:00:36.637Z,100070.00
2019-04-04T23:03:06.234Z,100065.37
2019-04-04T23:05:35.221Z,100065.16
2019-04-04T23:08:04.181Z,100070.06
2019-04-04T23:10:33.076Z,100070.35
2019-04-04T23:13:02.030Z,100069.26
2019-04-04T23:15:30.945Z,100070.86
2019-04-04T23:17:59.855Z,100078.44
2019-04-04T23:20:28.792Z,100075.88
2019-04-04T23:22:57.722Z,100076.16
2019-04-04T23:25:26.627Z,100075.75
2019-04-04T23:27:55.553Z,100074.77
2019-04-04T23:30:24.482Z,100072.69
2019-04-04T23:32:53.394Z,100080.19
2019-04-04T23:35:22.334Z,100086.06
2019-04-04T23:37:51.258Z,100086.47
2019-04-04T23:40:20.190Z,100091.61
2019-04-04T23:42:49.090Z,100090.59
2019-04-04T23:45:18.012Z,100096.09
2019-04-04T23:47:46.915Z,100089.61
2019-04-04T23:50:15.865Z,100087.13
2019-04-04T23:52:44.855Z,100089.44
2019-04-04T23:55:13.771Z,100094.58
2019-04-04T23:57:42.740Z,100095.68
